Time;durP1;ratioP1;P1;durP2;ratioP2;P2;SDS_P1;SDS_P2;PMS_P1;PMS_P2;Temp;Humidity;BMP_temperature;BMP_pressure;BME280_temperature;BME280_humidity;BME280_pressure;Samples;Min_cycle;Max_cycle;Signal;HPM_P1;HPM_P2
2020/12/15 00:01:52;;;;;;;0.50;0.20;;;10.30;99.90;;;;;;5056024;28;20197;-79
2020/12/15 00:04:18;;;;;;;0.90;0.27;;;10.30;99.90;;;;;;5055844;28;20245;-79
2020/12/15 00:06:43;;;;;;;1.00;0.37;;;10.30;99.90;;;;;;5056380;28;20199;-80
2020/12/15 00:09:09;;;;;;;0.57;0.33;;;10.30;99.90;;;;;;5056737;28;20183;-80
2020/12/15 00:11:35;;;;;;;0.20;0.20;;;10.30;99.90;;;;;;5056908;28;20725;-78
2020/12/15 00:14:00;;;;;;;0.00;0.00;;;10.30;99.90;;;;;;5055040;28;20167;-80
2020/12/15 00:16:26;;;;;;;0.30;0.20;;;10.30;99.90;;;;;;5073384;28;20633;-82
2020/12/15 00:18:51;;;;;;;0.00;0.00;;;10.30;99.90;;;;;;5062448;28;20162;-78
2020/12/15 00:21:21;;;;;;;0.23;0.03;;;10.30;99.90;;;;;;5080884;28;20202;-78
2020/12/15 00:23:49;;;;;;;0.20;0.20;;;10.40;99.90;;;;;;5078024;28;20195;-78
2020/12/15 00:26:15;;;;;;;0.43;0.30;;;10.40;99.90;;;;;;5057669;28;20316;-78
2020/12/15 00:28:40;;;;;;;0.20;0.10;;;10.40;99.90;;;;;;5060266;28;20641;-79
2020/12/15 00:31:06;;;;;;;0.03;0.03;;;10.40;99.90;;;;;;5060295;28;20238;-78
2020/12/15 00:33:31;;;;;;;0.20;0.20;;;10.40;99.90;;;;;;5063830;28;20197;-79
2020/12/15 00:35:57;;;;;;;0.30;0.30;;;10.40;99.90;;;;;;5087832;28;20182;-79
2020/12/15 00:38:22;;;;;;;0.10;0.10;;;10.40;99.90;;;;;;5063764;28;20174;-77
2020/12/15 00:40:48;;;;;;;0.40;0.40;;;10.40;99.90;;;;;;5060354;28;20236;-78
2020/12/15 00:43:13;;;;;;;0.10;0.10;;;10.40;99.90;;;;;;5078480;28;20198;-78
2020/12/15 00:45:39;;;;;;;0.20;0.20;;;10.40;99.90;;;;;;5060259;28;20171;-78
2020/12/15 00:48:04;;;;;;;0.10;0.10;;;10.40;99.90;;;;;;5060896;28;20178;-78
2020/12/15 00:50:30;;;;;;;0.00;0.00;;;10.50;99.90;;;;;;5060512;28;20213;-78
2020/12/15 00:52:55;;;;;;;0.40;0.30;;;10.50;99.90;;;;;;5078696;28;20206;-78
2020/12/15 00:55:21;;;;;;;1.10;0.50;;;10.50;99.90;;;;;;5078350;28;20254;-78
2020/12/15 00:57:46;;;;;;;0.10;0.10;;;10.50;99.90;;;;;;5060588;28;20175;-78
2020/12/15 01:13:48;;;;;;;0.27;0.27;;;10.40;99.90;;;;;;5053279;28;20230;-80
2020/12/15 01:16:13;;;;;;;0.10;0.10;;;10.40;99.90;;;;;;5038372;28;20175;-81
2020/12/15 01:18:39;;;;;;;0.17;0.17;;;10.40;99.90;;;;;;5039188;28;20704;-81
2020/12/15 01:21:05;;;;;;;0.20;0.20;;;10.40;99.90;;;;;;5057869;28;20240;-81
2020/12/15 01:23:31;;;;;;;0.20;0.20;;;10.50;99.90;;;;;;5057042;28;20206;-81
2020/12/15 01:25:56;;;;;;;4.60;1.13;;;10.50;99.90;;;;;;5039263;28;20198;-80
2020/12/15 01:28:22;;;;;;;0.23;0.23;;;10.40;99.90;;;;;;5058179;28;20155;-81
2020/12/15 01:30:47;;;;;;;0.00;0.00;;;10.30;99.90;;;;;;5057546;28;20217;-81
2020/12/15 01:33:13;;;;;;;0.33;0.33;;;10.30;99.90;;;;;;5038559;28;20195;-81
2020/12/15 01:35:38;;;;;;;0.20;0.20;;;10.20;99.90;;;;;;5057412;28;20493;-81
2020/12/15 01:38:04;;;;;;;0.20;0.20;;;10.20;99.90;;;;;;5055790;28;20174;-81
2020/12/15 01:40:30;;;;;;;0.10;0.10;;;10.20;99.90;;;;;;5037866;28;20172;-79
2020/12/15 01:42:55;;;;;;;0.63;0.63;;;10.10;99.90;;;;;;5037332;28;20195;-81
2020/12/15 01:45:21;;;;;;;0.00;0.00;;;10.10;99.90;;;;;;5055199;28;20168;-80
2020/12/15 01:47:46;;;;;;;0.10;0.10;;;10.00;99.90;;;;;;5037498;28;20163;-82
2020/12/15 01:50:12;;;;;;;1.40;0.93;;;10.00;99.90;;;;;;5037471;28;20163;-82
2020/12/15 01:52:38;;;;;;;0.00;0.00;;;9.90;99.90;;;;;;5036992;28;20198;-82
2020/12/15 01:55:04;;;;;;;1.00;0.50;;;9.80;99.90;;;;;;5037000;28;20168;-83
2020/12/15 01:57:30;;;;;;;0.20;0.20;;;9.70;99.90;;;;;;5036970;28;20225;-82
2020/12/15 01:59:56;;;;;;;0.40;0.40;;;9.70;99.90;;;;;;5036965;28;20229;-82
2020/12/15 02:02:22;;;;;;;0.20;0.20;;;9.70;99.90;;;;;;5036726;28;20195;-82
2020/12/15 02:04:48;;;;;;;0.37;0.30;;;9.60;99.90;;;;;;5038555;28;20259;-82
2020/12/15 02:07:15;;;;;;;0.20;0.20;;;9.70;99.90;;;;;;5054484;28;20171;-83
2020/12/15 02:09:41;;;;;;;0.00;0.00;;;9.60;99.90;;;;;;5054464;28;20167;-83
2020/12/15 02:12:07;;;;;;;0.00;0.00;;;9.60;99.90;;;;;;5036361;28;20221;-82
2020/12/15 02:14:32;;;;;;;1.03;0.90;;;9.60;99.90;;;;;;5054407;28;20184;-82
2020/12/15 02:17:00;;;;;;;0.00;0.00;;;9.60;99.90;;;;;;5036458;28;20679;-81
2020/12/15 02:19:25;;;;;;;0.10;0.10;;;9.60;99.90;;;;;;5036589;28;20190;-82
2020/12/15 02:21:54;;;;;;;0.77;0.77;;;9.60;99.90;;;;;;5054503;28;20160;-82
2020/12/15 02:24:20;;;;;;;0.37;0.07;;;9.60;99.90;;;;;;5036314;28;20276;-81
2020/12/15 02:26:46;;;;;;;0.43;0.30;;;9.60;99.90;;;;;;5036307;28;20199;-81
2020/12/15 02:29:12;;;;;;;0.20;0.20;;;9.50;99.90;;;;;;5036182;28;20172;-82
2020/12/15 02:31:37;;;;;;;0.30;0.30;;;9.50;99.90;;;;;;5036088;28;20168;-82
2020/12/15 02:34:03;;;;;;;0.23;0.23;;;9.50;99.90;;;;;;5036094;28;20176;-82
2020/12/15 02:36:29;;;;;;;0.20;0.20;;;9.50;99.90;;;;;;5036245;28;20172;-82
2020/12/15 02:39:03;;;;;;;0.00;0.00;;;9.50;99.90;;;;;;5054261;28;20195;-82
2020/12/15 02:41:29;;;;;;;0.57;0.57;;;9.40;99.90;;;;;;5036406;28;20181;-82
2020/12/15 02:43:54;;;;;;;0.00;0.00;;;9.40;99.90;;;;;;5035836;28;20199;-82
2020/12/15 02:46:20;;;;;;;0.07;0.07;;;9.30;99.90;;;;;;5053736;28;20175;-82
2020/12/15 02:48:45;;;;;;;0.70;0.70;;;9.30;99.90;;;;;;5052985;28;20200;-82
2020/12/15 02:51:11;;;;;;;0.20;0.20;;;9.20;99.90;;;;;;5053685;28;20191;-82
2020/12/15 02:53:36;;;;;;;0.20;0.20;;;9.30;99.90;;;;;;5035746;28;20633;-82
2020/12/15 02:56:02;;;;;;;0.27;0.27;;;9.20;99.90;;;;;;5053485;28;20168;-82
2020/12/15 02:58:27;;;;;;;0.40;0.13;;;9.20;99.90;;;;;;5053600;28;20233;-82
2020/12/15 03:00:53;;;;;;;0.20;0.20;;;9.20;99.90;;;;;;5053615;28;20172;-82
2020/12/15 03:03:18;;;;;;;0.83;0.83;;;9.20;99.90;;;;;;5053412;28;20202;-82
2020/12/15 03:05:44;;;;;;;0.10;0.10;;;9.20;99.90;;;;;;5035703;28;20164;-82
2020/12/15 03:08:09;;;;;;;0.37;0.37;;;9.20;99.90;;;;;;5053772;28;20226;-82
2020/12/15 03:10:35;;;;;;;0.27;0.27;;;9.20;99.90;;;;;;5053478;28;20531;-82
2020/12/15 03:13:00;;;;;;;0.40;0.40;;;9.30;99.90;;;;;;5035417;28;20241;-82
2020/12/15 03:15:26;;;;;;;0.30;0.30;;;9.30;99.90;;;;;;5035569;28;20260;-82
2020/12/15 03:17:51;;;;;;;0.00;0.00;;;9.30;99.90;;;;;;5035481;28;20163;-81
2020/12/15 03:20:17;;;;;;;0.20;0.20;;;9.30;99.90;;;;;;5035417;28;20167;-82
2020/12/15 03:22:42;;;;;;;0.10;0.10;;;9.30;99.90;;;;;;5053182;28;20207;-82
2020/12/15 03:25:08;;;;;;;0.40;0.37;;;9.30;99.90;;;;;;5035313;28;20167;-82
2020/12/15 03:27:33;;;;;;;1.40;0.53;;;9.30;99.90;;;;;;5053561;28;20689;-82
2020/12/15 03:29:59;;;;;;;0.10;0.10;;;9.30;99.90;;;;;;5035295;28;20164;-82
2020/12/15 03:32:24;;;;;;;0.20;0.10;;;9.30;99.90;;;;;;5053347;28;20195;-82
2020/12/15 03:34:50;;;;;;;0.70;0.60;;;9.30;99.90;;;;;;5035305;28;20635;-82
2020/12/15 03:37:15;;;;;;;0.37;0.37;;;9.30;99.90;;;;;;5053130;28;20246;-82
2020/12/15 03:39:41;;;;;;;0.87;0.37;;;9.30;99.90;;;;;;5035303;28;20172;-82
2020/12/15 03:42:06;;;;;;;0.10;0.10;;;9.40;99.90;;;;;;5035257;28;20183;-82
2020/12/15 03:44:32;;;;;;;0.13;0.13;;;9.40;99.90;;;;;;5053048;28;20210;-82
2020/12/15 03:46:57;;;;;;;0.60;0.60;;;9.40;99.90;;;;;;5053061;28;20164;-82
2020/12/15 03:49:23;;;;;;;0.10;0.10;;;9.40;99.90;;;;;;5035237;28;20175;-82
2020/12/15 03:51:48;;;;;;;0.40;0.40;;;9.40;99.90;;;;;;5035095;28;20168;-82
2020/12/15 03:54:14;;;;;;;0.30;0.30;;;9.50;99.90;;;;;;5035132;28;20543;-82
2020/12/15 03:56:39;;;;;;;0.20;0.20;;;9.50;99.90;;;;;;5053004;28;20172;-82
2020/12/15 03:59:05;;;;;;;0.63;0.63;;;9.50;99.90;;;;;;5035003;28;20179;-82
2020/12/15 04:01:30;;;;;;;0.67;0.67;;;9.50;99.90;;;;;;5037628;28;20179;-82
2020/12/15 04:03:56;;;;;;;0.20;0.20;;;9.50;99.90;;;;;;5038736;28;20253;-82
2020/12/15 04:06:21;;;;;;;0.37;0.37;;;9.50;99.90;;;;;;5038912;28;20632;-82
2020/12/15 04:08:47;;;;;;;0.60;0.60;;;9.50;99.90;;;;;;5038843;28;20164;-82
2020/12/15 04:11:12;;;;;;;0.30;0.30;;;9.40;99.90;;;;;;5038867;28;20178;-82
2020/12/15 04:13:38;;;;;;;0.77;0.40;;;9.40;99.90;;;;;;5056405;28;20203;-82
2020/12/15 04:16:03;;;;;;;1.30;1.03;;;9.40;99.90;;;;;;5038774;28;20168;-82
2020/12/15 04:18:29;;;;;;;0.60;0.60;;;9.40;99.90;;;;;;5038616;28;20171;-82
2020/12/15 04:20:54;;;;;;;0.00;0.00;;;9.40;99.90;;;;;;5038676;28;20175;-83
2020/12/15 04:23:20;;;;;;;0.83;0.83;;;9.40;99.90;;;;;;5038287;28;20678;-83
2020/12/15 04:25:54;;;;;;;0.77;0.50;;;9.40;99.90;;;;;;5038585;28;20178;-84
2020/12/15 04:28:20;;;;;;;0.57;0.57;;;9.40;99.90;;;;;;5038502;28;20182;-84
2020/12/15 04:30:45;;;;;;;0.20;0.20;;;9.40;99.90;;;;;;5038528;28;20167;-84
2020/12/15 04:33:12;;;;;;;0.83;0.83;;;9.40;99.90;;;;;;5056288;28;20187;-84
2020/12/15 04:35:38;;;;;;;0.57;0.57;;;9.40;99.90;;;;;;5056217;28;20251;-84
2020/12/15 04:38:04;;;;;;;1.20;0.30;;;9.40;99.90;;;;;;5038260;28;20207;-84
2020/12/15 04:40:31;;;;;;;0.40;0.40;;;9.40;99.90;;;;;;5038163;28;20172;-84
2020/12/15 04:43:00;;;;;;;0.87;0.87;;;9.30;99.90;;;;;;5038151;28;20296;-84
2020/12/15 04:45:25;;;;;;;0.10;0.10;;;9.30;99.90;;;;;;5038101;28;20195;-84
2020/12/15 04:47:57;;;;;;;1.17;0.90;;;9.30;99.90;;;;;;5056257;28;20186;-84
2020/12/15 04:50:24;;;;;;;0.20;0.20;;;9.30;99.90;;;;;;5038181;28;20198;-83
2020/12/15 04:52:57;;;;;;;1.13;0.73;;;9.40;99.90;;;;;;5037986;28;20187;-84
2020/12/15 04:55:26;;;;;;;0.60;0.60;;;9.30;99.90;;;;;;5037991;28;20175;-82
2020/12/15 04:57:59;;;;;;;0.43;0.43;;;9.30;99.90;;;;;;5037985;28;20179;-83
2020/12/15 05:00:24;;;;;;;0.50;0.50;;;9.30;99.90;;;;;;5038028;28;20524;-83
2020/12/15 05:02:51;;;;;;;0.43;0.43;;;9.30;99.90;;;;;;5037908;28;20233;-82
2020/12/15 05:05:17;;;;;;;0.83;0.83;;;9.30;99.90;;;;;;5037858;28;20175;-82
2020/12/15 05:07:45;;;;;;;0.50;0.50;;;9.30;99.90;;;;;;5037793;28;20394;-82
2020/12/15 05:10:13;;;;;;;0.20;0.20;;;9.30;99.90;;;;;;5037761;28;20176;-82
2020/12/15 05:12:40;;;;;;;0.40;0.40;;;9.30;99.90;;;;;;5036257;28;20208;-82
2020/12/15 05:15:10;;;;;;;0.93;0.63;;;9.30;99.90;;;;;;5037628;28;20318;-82
2020/12/15 05:17:36;;;;;;;0.90;0.47;;;9.30;99.90;;;;;;5037555;28;20659;-82
2020/12/15 05:20:05;;;;;;;0.40;0.40;;;9.30;99.90;;;;;;5037631;28;20171;-82
2020/12/15 05:22:48;;;;;;;1.73;0.83;;;9.30;99.90;;;;;;5055228;28;20199;-82
2020/12/15 05:25:37;;;;;;;0.60;0.60;;;9.30;99.90;;;;;;5055337;28;20160;-82
2020/12/15 05:28:11;;;;;;;0.70;0.60;;;9.40;99.90;;;;;;5055357;28;20485;-82
2020/12/15 05:30:36;;;;;;;0.63;0.63;;;9.40;99.90;;;;;;5037443;28;20250;-82
2020/12/15 05:33:02;;;;;;;0.23;0.23;;;9.40;99.90;;;;;;5055291;28;20657;-82
2020/12/15 05:35:35;;;;;;;0.77;0.77;;;9.40;99.90;;;;;;5054989;28;20171;-82
2020/12/15 05:38:03;;;;;;;0.50;0.50;;;9.40;99.90;;;;;;5037197;28;20180;-82
2020/12/15 05:40:29;;;;;;;1.07;0.80;;;9.40;99.90;;;;;;5037182;28;20176;-82
2020/12/15 05:43:00;;;;;;;1.67;0.80;;;9.40;99.90;;;;;;5037020;28;20200;-82
2020/12/15 05:45:27;;;;;;;0.87;0.87;;;9.40;99.90;;;;;;5037065;28;20175;-82
2020/12/15 05:48:02;;;;;;;0.60;0.60;;;9.40;99.90;;;;;;5054885;28;20168;-82
2020/12/15 05:50:28;;;;;;;0.80;0.80;;;9.30;99.90;;;;;;5054726;28;20167;-82
2020/12/15 05:52:57;;;;;;;0.37;0.37;;;9.40;99.90;;;;;;5036911;28;20191;-82
2020/12/15 05:55:23;;;;;;;0.80;0.80;;;9.30;99.90;;;;;;5036907;28;20270;-82
2020/12/15 05:57:51;;;;;;;0.40;0.40;;;9.30;99.90;;;;;;5054707;28;20594;-82
2020/12/15 06:00:16;;;;;;;1.80;0.93;;;9.40;99.90;;;;;;5036767;28;20186;-82
2020/12/15 06:02:42;;;;;;;0.90;0.63;;;9.40;99.90;;;;;;5036483;28;20203;-82
2020/12/15 06:05:08;;;;;;;0.40;0.40;;;9.40;99.90;;;;;;5054797;28;20164;-82
2020/12/15 06:07:34;;;;;;;0.60;0.47;;;9.30;99.90;;;;;;5037020;28;20178;-81
2020/12/15 06:10:02;;;;;;;0.40;0.40;;;9.30;99.90;;;;;;5054429;28;20528;-81
2020/12/15 06:12:28;;;;;;;1.33;0.67;;;9.30;99.90;;;;;;5036323;28;20293;-82
2020/12/15 06:14:53;;;;;;;0.43;0.43;;;9.30;99.90;;;;;;5054269;28;20245;-82
2020/12/15 06:17:20;;;;;;;0.67;0.67;;;9.40;99.90;;;;;;5054192;28;20168;-82
2020/12/15 06:19:52;;;;;;;0.57;0.57;;;9.40;99.90;;;;;;5036406;28;20221;-82
2020/12/15 06:22:22;;;;;;;0.50;0.50;;;9.40;99.90;;;;;;5054191;28;20202;-81
2020/12/15 06:24:59;;;;;;;1.17;1.07;;;9.40;99.90;;;;;;5036109;28;20178;-81
2020/12/15 06:27:35;;;;;;;2.03;1.17;;;9.40;99.90;;;;;;5036123;28;20571;-82
2020/12/15 06:30:03;;;;;;;1.13;0.50;;;9.40;99.90;;;;;;5036098;28;20632;-82
2020/12/15 06:32:28;;;;;;;1.47;0.47;;;9.40;99.90;;;;;;5036149;28;20187;-82
2020/12/15 06:34:54;;;;;;;0.93;0.43;;;9.40;99.90;;;;;;5036151;28;20163;-82
2020/12/15 06:37:22;;;;;;;0.43;0.43;;;9.40;99.90;;;;;;5036064;28;20167;-82
2020/12/15 06:39:59;;;;;;;0.37;0.30;;;9.40;99.90;;;;;;5053955;28;20657;-82
2020/12/15 06:42:27;;;;;;;0.60;0.60;;;9.40;99.90;;;;;;5035955;28;20274;-82
2020/12/15 06:45:07;;;;;;;0.90;0.90;;;9.50;99.90;;;;;;5035938;28;20175;-82
2020/12/15 06:47:33;;;;;;;0.60;0.60;;;9.40;99.90;;;;;;5036065;28;20167;-81
2020/12/15 06:50:09;;;;;;;1.30;0.97;;;9.50;99.90;;;;;;5035851;28;20259;-81
2020/12/15 06:52:35;;;;;;;1.30;1.20;;;9.40;99.90;;;;;;5035737;28;20186;-81
2020/12/15 06:55:00;;;;;;;0.73;0.73;;;9.50;99.90;;;;;;5053716;28;20569;-81
2020/12/15 06:57:31;;;;;;;0.57;0.57;;;9.50;99.90;;;;;;5035931;28;20577;-80
2020/12/15 06:59:59;;;;;;;0.63;0.63;;;9.50;99.90;;;;;;5035850;28;20190;-81
2020/12/15 07:02:29;;;;;;;0.20;0.20;;;9.50;99.90;;;;;;5053436;28;20176;-81
2020/12/15 07:05:12;;;;;;;0.60;0.60;;;9.60;99.90;;;;;;5053468;28;20164;-81
2020/12/15 07:08:08;;;;;;;0.77;0.77;;;9.50;99.90;;;;;;5053656;28;20144;-81
2020/12/15 07:10:35;;;;;;;0.80;0.50;;;9.50;99.90;;;;;;5015932;28;20175;-81
2020/12/15 07:13:00;;;;;;;0.47;0.30;;;9.60;99.90;;;;;;5053315;28;20207;-79
2020/12/15 07:15:28;;;;;;;0.47;0.40;;;9.60;99.90;;;;;;5053283;28;20186;-83
2020/12/15 07:17:55;;;;;;;0.50;0.50;;;9.60;99.90;;;;;;5035522;28;20182;-78
2020/12/15 07:20:21;;;;;;;0.57;0.50;;;9.60;99.90;;;;;;5035742;28;20513;-81
2020/12/15 07:22:47;;;;;;;0.87;0.53;;;9.60;99.90;;;;;;5035773;28;20203;-81
2020/12/15 07:25:14;;;;;;;0.80;0.70;;;9.70;99.90;;;;;;5053322;28;20605;-83
2020/12/15 07:27:40;;;;;;;0.60;0.60;;;9.70;99.90;;;;;;5035342;28;20624;-83
2020/12/15 07:30:08;;;;;;;1.27;1.17;;;9.60;99.90;;;;;;5035430;28;20254;-80
2020/12/15 07:32:36;;;;;;;1.17;0.70;;;9.70;99.90;;;;;;5035298;28;20671;-80
2020/12/15 07:35:07;;;;;;;0.37;0.37;;;9.70;99.90;;;;;;5053623;28;20163;-81
2020/12/15 07:37:41;;;;;;;1.43;1.33;;;9.70;99.90;;;;;;5057749;28;20662;-79
2020/12/15 07:40:08;;;;;;;1.90;0.90;;;9.70;99.90;;;;;;5057775;28;20231;-83
2020/12/15 07:42:34;;;;;;;1.17;1.17;;;9.70;99.90;;;;;;5039159;28;20563;-86
2020/12/15 07:45:04;;;;;;;0.97;0.83;;;9.70;99.90;;;;;;5039379;28;20168;-86
2020/12/15 07:47:37;;;;;;;0.17;0.17;;;9.70;99.90;;;;;;5039430;28;20167;-86
2020/12/15 07:50:03;;;;;;;1.37;1.10;;;9.70;99.90;;;;;;5039455;28;20539;-87
2020/12/15 07:52:37;;;;;;;0.70;0.70;;;9.70;99.90;;;;;;5039225;28;20184;-83
2020/12/15 07:55:05;;;;;;;0.90;0.90;;;9.70;99.90;;;;;;5039341;28;20637;-83
2020/12/15 07:57:32;;;;;;;0.43;0.43;;;9.70;99.90;;;;;;5057321;28;20168;-88
2020/12/15 08:00:11;;;;;;;0.87;0.87;;;9.70;99.90;;;;;;5039059;28;20167;-83
2020/12/15 08:02:37;;;;;;;0.23;0.23;;;9.70;99.90;;;;;;5038925;28;20196;-85
2020/12/15 08:05:17;;;;;;;0.40;0.40;;;9.70;99.90;;;;;;5056883;28;20281;-85
2020/12/15 08:07:51;;;;;;;1.07;1.07;;;9.70;99.90;;;;;;5057140;28;20148;-83
2020/12/15 08:10:28;;;;;;;0.83;0.83;;;9.70;99.90;;;;;;5038990;28;20178;-85
2020/12/15 08:13:02;;;;;;;6.13;2.10;;;9.70;99.90;;;;;;5038719;28;20336;-79
2020/12/15 08:15:28;;;;;;;0.90;0.90;;;9.70;99.90;;;;;;5038738;28;20521;-82
2020/12/15 08:17:55;;;;;;;1.07;1.03;;;9.60;99.90;;;;;;5056581;28;20164;-80
2020/12/15 08:20:28;;;;;;;1.27;1.17;;;9.70;99.90;;;;;;5056800;28;20168;-78
2020/12/15 08:23:09;;;;;;;0.90;0.47;;;9.70;99.90;;;;;;5056491;28;20199;-82
2020/12/15 08:25:37;;;;;;;0.30;0.27;;;9.70;99.90;;;;;;5056511;28;20238;-79
2020/12/15 08:28:23;;;;;;;0.83;0.70;;;9.70;99.90;;;;;;5056427;28;20174;-78
2020/12/15 08:30:53;;;;;;;0.37;0.37;;;9.70;99.90;;;;;;5038615;28;20167;-78
2020/12/15 08:33:23;;;;;;;0.73;0.70;;;9.70;99.90;;;;;;5056282;28;20551;-79
2020/12/15 08:35:49;;;;;;;1.37;0.53;;;9.80;99.90;;;;;;5038478;28;20639;-79
2020/12/15 08:38:15;;;;;;;0.67;0.67;;;9.80;99.90;;;;;;5056455;28;20164;-79
2020/12/15 08:40:43;;;;;;;1.30;0.77;;;9.80;99.90;;;;;;5056250;28;20167;-78
2020/12/15 08:43:09;;;;;;;0.50;0.50;;;9.80;99.90;;;;;;5055701;28;20273;-78
2020/12/15 08:45:35;;;;;;;0.73;0.73;;;9.80;99.90;;;;;;5056144;28;20565;-78
2020/12/15 08:48:00;;;;;;;0.83;0.77;;;9.90;99.90;;;;;;5055927;28;20163;-79
2020/12/15 08:50:28;;;;;;;0.50;0.37;;;9.90;99.90;;;;;;5056022;28;20202;-78
2020/12/15 08:53:07;;;;;;;0.60;0.60;;;9.90;99.90;;;;;;5056187;28;20211;-77
2020/12/15 08:55:33;;;;;;;0.80;0.60;;;9.90;99.90;;;;;;5055885;28;20246;-79
2020/12/15 08:58:04;;;;;;;1.37;1.27;;;9.90;99.90;;;;;;5038290;28;20302;-78
2020/12/15 09:00:33;;;;;;;1.43;0.80;;;9.90;99.90;;;;;;5056155;28;20171;-79
2020/12/15 09:03:12;;;;;;;0.80;0.67;;;9.90;99.90;;;;;;5037629;28;20204;-84
2020/12/15 09:05:50;;;;;;;0.83;0.83;;;9.90;99.90;;;;;;5037916;28;20182;-78
2020/12/15 09:08:21;;;;;;;1.03;0.80;;;9.90;99.90;;;;;;5055625;28;20568;-79
2020/12/15 09:10:47;;;;;;;0.50;0.33;;;10.00;99.90;;;;;;5055765;28;20190;-80
2020/12/15 09:13:13;;;;;;;0.67;0.67;;;10.00;99.90;;;;;;5037516;28;20265;-82
2020/12/15 09:15:46;;;;;;;0.23;0.23;;;10.10;99.90;;;;;;5037704;28;20175;-81
2020/12/15 09:18:13;;;;;;;0.60;0.60;;;10.10;99.90;;;;;;5055432;28;20587;-81
2020/12/15 09:20:39;;;;;;;0.70;0.70;;;10.10;99.90;;;;;;5055453;28;20262;-77
2020/12/15 09:23:05;;;;;;;0.60;0.53;;;10.20;99.90;;;;;;5055470;28;20714;-77
2020/12/15 09:25:30;;;;;;;0.33;0.33;;;10.20;99.90;;;;;;5055394;28;20174;-77
2020/12/15 09:27:56;;;;;;;0.70;0.70;;;10.20;99.90;;;;;;5055327;28;20195;-77
2020/12/15 09:30:21;;;;;;;0.27;0.27;;;10.10;99.90;;;;;;5037428;28;20536;-77
2020/12/15 09:32:47;;;;;;;0.57;0.43;;;10.10;99.90;;;;;;5037259;28;20555;-77
2020/12/15 09:35:13;;;;;;;0.70;0.70;;;10.10;99.90;;;;;;5055277;28;20164;-77
2020/12/15 09:37:39;;;;;;;0.30;0.20;;;10.20;99.90;;;;;;5055184;28;20644;-77
2020/12/15 09:40:08;;;;;;;0.90;0.63;;;10.20;99.90;;;;;;5037259;28;20171;-77
2020/12/15 09:42:35;;;;;;;4.00;0.87;;;10.20;99.90;;;;;;5037085;28;20195;-77
2020/12/15 09:45:01;;;;;;;0.47;0.47;;;10.20;99.90;;;;;;5054999;28;20178;-81
2020/12/15 09:47:26;;;;;;;0.30;0.30;;;10.20;99.90;;;;;;5037086;28;20172;-81
2020/12/15 09:49:52;;;;;;;0.30;0.30;;;10.20;99.90;;;;;;5034124;28;20176;-78
2020/12/15 09:52:17;;;;;;;0.20;0.20;;;10.20;99.90;;;;;;5034812;28;20192;-78
2020/12/15 09:54:43;;;;;;;0.47;0.47;;;10.20;99.90;;;;;;5034848;28;20188;-78
2020/12/15 09:57:09;;;;;;;0.53;0.53;;;10.20;99.90;;;;;;5035454;28;20160;-82
2020/12/15 09:59:34;;;;;;;1.13;0.50;;;10.20;99.90;;;;;;5016527;28;20230;-78
2020/12/15 10:02:00;;;;;;;1.13;0.80;;;10.20;99.90;;;;;;5035352;28;20207;-77
2020/12/15 10:04:25;;;;;;;0.27;0.27;;;10.20;99.90;;;;;;5017068;28;20204;-77
2020/12/15 10:06:51;;;;;;;0.30;0.30;;;10.20;99.90;;;;;;5035324;28;20160;-78
2020/12/15 10:09:16;;;;;;;0.57;0.57;;;10.30;99.90;;;;;;5034651;28;20165;-80
2020/12/15 10:11:45;;;;;;;0.47;0.40;;;10.30;99.90;;;;;;5016712;28;20183;-79
2020/12/15 10:14:11;;;;;;;0.33;0.33;;;10.30;99.90;;;;;;5034832;28;20169;-79
2020/12/15 10:16:37;;;;;;;0.70;0.70;;;10.30;99.90;;;;;;5017014;28;20177;-78
2020/12/15 10:19:03;;;;;;;1.07;0.87;;;10.30;99.90;;;;;;5016676;28;20195;-78
2020/12/15 10:21:28;;;;;;;0.30;0.30;;;10.30;99.90;;;;;;5034756;28;20623;-82
2020/12/15 10:23:54;;;;;;;0.30;0.30;;;10.30;99.90;;;;;;5016915;28;20206;-77
2020/12/15 10:26:21;;;;;;;0.83;0.37;;;10.40;99.90;;;;;;5034985;28;20525;-78
2020/12/15 10:28:47;;;;;;;0.40;0.40;;;10.30;99.90;;;;;;5017753;28;20180;-80
2020/12/15 10:31:12;;;;;;;0.40;0.30;;;10.30;99.90;;;;;;5017097;28;20176;-79
2020/12/15 10:33:38;;;;;;;0.27;0.27;;;10.30;99.90;;;;;;5017959;28;20206;-77
2020/12/15 10:36:04;;;;;;;0.50;0.50;;;10.30;99.90;;;;;;5036391;28;20636;-78
2020/12/15 10:38:30;;;;;;;0.60;0.60;;;10.30;99.90;;;;;;5035068;28;20632;-80
2020/12/15 10:40:57;;;;;;;3.70;0.40;;;10.20;99.90;;;;;;5016860;28;20221;-80
2020/12/15 10:43:23;;;;;;;0.03;0.03;;;10.30;99.90;;;;;;5033982;28;20196;-80
2020/12/15 10:45:49;;;;;;;2.33;1.03;;;10.30;99.90;;;;;;5016206;28;20644;-79
2020/12/15 10:48:14;;;;;;;0.17;0.17;;;10.20;99.90;;;;;;5033928;28;20198;-79
2020/12/15 10:50:40;;;;;;;0.77;0.77;;;10.20;99.90;;;;;;5033836;28;20529;-81
2020/12/15 10:53:09;;;;;;;0.93;0.87;;;10.20;99.90;;;;;;5016030;28;20192;-80
2020/12/15 10:55:34;;;;;;;0.60;0.40;;;10.20;99.90;;;;;;5034004;28;20168;-81
2020/12/15 10:58:00;;;;;;;0.97;0.87;;;10.20;99.90;;;;;;5016067;28;20202;-80
2020/12/15 11:00:25;;;;;;;0.47;0.47;;;10.20;99.90;;;;;;5016110;28;20539;-81
2020/12/15 11:02:51;;;;;;;0.57;0.57;;;10.20;99.90;;;;;;5015859;28;20203;-79
2020/12/15 11:05:16;;;;;;;0.40;0.40;;;10.20;99.90;;;;;;5033701;28;20218;-82
2020/12/15 11:07:42;;;;;;;0.50;0.50;;;10.20;99.90;;;;;;5016267;28;20632;-78
2020/12/15 11:10:07;;;;;;;0.37;0.37;;;10.20;99.90;;;;;;5015130;28;20169;-80
2020/12/15 11:12:33;;;;;;;0.77;0.77;;;10.20;99.90;;;;;;5015812;28;20218;-82
2020/12/15 11:14:58;;;;;;;0.10;0.10;;;10.20;99.90;;;;;;5015949;28;20173;-81
2020/12/15 11:17:24;;;;;;;0.00;0.00;;;10.30;99.90;;;;;;5015955;28;20251;-83
2020/12/15 11:19:49;;;;;;;0.93;0.67;;;10.30;99.90;;;;;;5032287;28;20164;-82
2020/12/15 11:22:15;;;;;;;0.97;0.50;;;10.30;99.90;;;;;;5032257;28;20192;-82
2020/12/15 11:24:40;;;;;;;1.57;0.90;;;10.30;99.90;;;;;;5033380;28;20211;-82
2020/12/15 11:27:06;;;;;;;0.40;0.40;;;10.30;99.90;;;;;;5031967;28;20172;-83
2020/12/15 11:29:33;;;;;;;0.53;0.53;;;10.30;99.90;;;;;;5032224;28;20179;-83
2020/12/15 11:31:58;;;;;;;0.53;0.53;;;10.30;99.90;;;;;;5032205;28;20850;-84
2020/12/15 11:34:24;;;;;;;1.80;0.47;;;10.30;99.90;;;;;;5033233;28;20230;-83
2020/12/15 11:36:53;;;;;;;0.40;0.40;;;10.40;99.90;;;;;;5032079;28;20188;-81
2020/12/15 11:39:20;;;;;;;0.93;0.43;;;10.40;99.90;;;;;;5033377;28;20183;-80
2020/12/15 11:41:46;;;;;;;0.10;0.10;;;10.40;99.90;;;;;;5031715;28;20176;-81
2020/12/15 11:44:12;;;;;;;0.70;0.33;;;10.40;99.90;;;;;;5032029;28;20237;-81
2020/12/15 11:46:37;;;;;;;0.10;0.10;;;10.40;99.90;;;;;;5033400;28;20172;-81
2020/12/15 11:49:03;;;;;;;6.73;1.13;;;10.40;99.90;;;;;;5031859;28;20176;-82
2020/12/15 11:51:28;;;;;;;0.77;0.50;;;10.40;99.90;;;;;;5032049;28;20176;-83
2020/12/15 11:53:54;;;;;;;2.20;0.93;;;10.40;99.90;;;;;;5033262;28;20192;-84
2020/12/15 11:56:20;;;;;;;0.23;0.23;;;10.40;99.90;;;;;;5032124;28;20176;-80
2020/12/15 11:58:46;;;;;;;0.80;0.67;;;10.40;99.90;;;;;;5032223;28;20263;-85
2020/12/15 12:01:12;;;;;;;1.07;1.03;;;10.40;99.90;;;;;;5032048;28;20176;-85
2020/12/15 12:03:38;;;;;;;0.83;0.57;;;10.40;99.90;;;;;;5031789;28;20215;-84
2020/12/15 12:06:04;;;;;;;0.67;0.67;;;10.50;99.90;;;;;;5031780;28;20176;-84
2020/12/15 12:08:30;;;;;;;0.87;0.60;;;10.50;99.90;;;;;;5031416;28;20176;-84
2020/12/15 12:10:56;;;;;;;1.73;1.63;;;10.50;99.90;;;;;;5031817;28;20172;-81
2020/12/15 12:13:21;;;;;;;0.87;0.57;;;10.50;99.90;;;;;;5031615;28;20307;-80
2020/12/15 12:15:47;;;;;;;1.63;1.53;;;10.50;99.90;;;;;;5031791;28;20255;-81
2020/12/15 12:18:12;;;;;;;0.77;0.77;;;10.50;99.90;;;;;;5032108;28;20357;-80
2020/12/15 12:20:38;;;;;;;1.70;1.10;;;10.50;99.90;;;;;;5036298;28;20180;-80
2020/12/15 12:23:04;;;;;;;1.47;0.97;;;10.50;99.90;;;;;;5048985;28;20208;-78
2020/12/15 12:25:30;;;;;;;0.30;0.20;;;10.50;99.90;;;;;;5038678;28;20176;-78
2020/12/15 12:27:55;;;;;;;0.50;0.50;;;10.50;99.90;;;;;;5056899;28;20194;-78
2020/12/15 12:30:21;;;;;;;0.93;0.50;;;10.50;99.90;;;;;;5058095;28;20172;-78
2020/12/15 12:32:48;;;;;;;1.27;0.53;;;10.50;99.90;;;;;;5056804;28;20685;-78
2020/12/15 12:35:14;;;;;;;0.73;0.73;;;10.50;99.90;;;;;;5072634;28;20179;-80
2020/12/15 12:37:40;;;;;;;0.30;0.30;;;10.50;99.90;;;;;;5055084;28;20183;-79
2020/12/15 12:40:05;;;;;;;1.40;0.87;;;10.50;99.90;;;;;;5056413;28;20164;-79
2020/12/15 12:42:31;;;;;;;2.10;0.90;;;10.50;99.90;;;;;;5069763;28;20196;-79
2020/12/15 12:44:57;;;;;;;0.23;0.23;;;10.50;99.90;;;;;;5056515;28;20671;-79
2020/12/15 12:47:23;;;;;;;0.40;0.40;;;10.50;99.90;;;;;;5054968;28;20233;-79
2020/12/15 12:49:48;;;;;;;0.60;0.60;;;10.50;99.90;;;;;;5055922;28;20163;-79
2020/12/15 12:52:14;;;;;;;1.53;0.70;;;10.50;99.90;;;;;;5038114;28;20195;-79
2020/12/15 12:54:39;;;;;;;0.20;0.20;;;10.50;99.90;;;;;;5055078;28;20198;-78
2020/12/15 12:57:05;;;;;;;0.90;0.80;;;10.50;99.90;;;;;;5055125;28;20176;-78
2020/12/15 12:59:31;;;;;;;0.37;0.37;;;10.50;99.90;;;;;;5054272;28;20727;-79
2020/12/15 13:02:03;;;;;;;0.67;0.63;;;10.50;99.90;;;;;;5054808;28;20168;-79
2020/12/15 13:04:28;;;;;;;0.60;0.60;;;10.50;99.90;;;;;;5054664;28;20191;-79
2020/12/15 13:06:55;;;;;;;0.67;0.33;;;10.50;99.90;;;;;;5056232;28;20214;-79